To NAV CANADA Home Page Login to a new session Search on AWWS site Feedback and Comments Disclaimer Vers la page française équivalente Tips FAQ What's new on the site To the Forecasts and Observations / NOTAM section To "File a Flight Plan" website Publications and other links Update of the User's profile FIC Telephone Numbers My Weather Data Folder Route Weather Data Regional Weather Data Local Weather Data To the Forecasts and Observations / NOTAM section
Request Generated 05/29/2015 at 04:01:28 UTC . Weather information available at that time is displayed.

METAR/TAF

ROBERVAL/QC    

METAR CYRJ 290300Z 29005KT 20SM FEW220 09/01 A3028 RMK CI1 CI TR
SLP260=
METAR CYRJ 290200Z 29006KT 20SM FEW100 10/02 A3027 RMK CI1 SLP256=
METAR CYRJ 290100Z 30005KT 40SM FEW220 11/02 A3023 RMK CI1 SLP241=

*** REMARK        : Forecast period has ended; this was the last TAF issued
*** REMARQUE : La période de prévision est échue; ceci était le dernier TAF qui a été émis
TAF CYRJ 281938Z 2820/2902 33008KT P6SM FEW050
RMK NXT FCST WILL BE ISSUED AT 291145Z=
Your time UTC time
Weather data provided by Environment Canada and NAV CANADA